sensor_id;sensor_type;location;lat;lon;timestamp;temperature;humidity
11009;DHT22;5557;51.670;7.788;2023-10-13T00:02:01;16.60;99.90
11009;DHT22;5557;51.670;7.788;2023-10-13T00:04:30;16.60;99.90
11009;DHT22;5557;51.670;7.788;2023-10-13T00:07:03;16.60;99.90
11009;DHT22;5557;51.670;7.788;2023-10-13T00:09:31;16.70;99.90
11009;DHT22;5557;51.670;7.788;2023-10-13T00:12:06;16.70;99.90
11009;DHT22;5557;51.670;7.788;2023-10-13T00:14:36;16.70;99.90
11009;DHT22;5557;51.670;7.788;2023-10-13T00:17:08;16.70;99.90
11009;DHT22;5557;51.670;7.788;2023-10-13T00:19:38;16.70;99.90
11009;DHT22;5557;51.670;7.788;2023-10-13T00:22:11;16.70;99.90
11009;DHT22;5557;51.670;7.788;2023-10-13T00:24:40;16.70;99.90
11009;DHT22;5557;51.670;7.788;2023-10-13T00:30:00;16.70;99.90
11009;DHT22;5557;51.670;7.788;2023-10-13T00:32:49;16.60;99.90
11009;DHT22;5557;51.670;7.788;2023-10-13T00:35:28;16.60;99.90
11009;DHT22;5557;51.670;7.788;2023-10-13T00:37:56;16.60;99.90
11009;DHT22;5557;51.670;7.788;2023-10-13T00:40:25;16.60;99.90
11009;DHT22;5557;51.670;7.788;2023-10-13T00:42:59;16.60;99.90
11009;DHT22;5557;51.670;7.788;2023-10-13T00:45:51;16.60;99.90
11009;DHT22;5557;51.670;7.788;2023-10-13T00:48:26;16.70;99.90
11009;DHT22;5557;51.670;7.788;2023-10-13T00:51:07;16.70;99.90
11009;DHT22;5557;51.670;7.788;2023-10-13T00:53:35;16.70;99.90
11009;DHT22;5557;51.670;7.788;2023-10-13T00:56:07;16.60;99.90
11009;DHT22;5557;51.670;7.788;2023-10-13T00:58:35;16.70;99.90
11009;DHT22;5557;51.670;7.788;2023-10-13T01:01:06;16.60;99.90
11009;DHT22;5557;51.670;7.788;2023-10-13T01:03:50;16.60;99.90
11009;DHT22;5557;51.670;7.788;2023-10-13T01:06:22;16.60;99.90
11009;DHT22;5557;51.670;7.788;2023-10-13T01:09:04;16.60;99.90
11009;DHT22;5557;51.670;7.788;2023-10-13T01:11:45;16.50;99.90
11009;DHT22;5557;51.670;7.788;2023-10-13T01:14:20;16.50;99.90
11009;DHT22;5557;51.670;7.788;2023-10-13T01:16:48;16.50;99.90
11009;DHT22;5557;51.670;7.788;2023-10-13T01:19:19;16.50;99.90
11009;DHT22;5557;51.670;7.788;2023-10-13T01:21:52;16.50;99.90
11009;DHT22;5557;51.670;7.788;2023-10-13T01:24:32;16.50;99.90
11009;DHT22;5557;51.670;7.788;2023-10-13T01:27:03;16.50;99.90
11009;DHT22;5557;51.670;7.788;2023-10-13T01:29:47;16.50;99.90
11009;DHT22;5557;51.670;7.788;2023-10-13T01:32:16;16.50;99.90
11009;DHT22;5557;51.670;7.788;2023-10-13T01:34:44;16.50;99.90
11009;DHT22;5557;51.670;7.788;2023-10-13T01:37:16;16.50;99.90
11009;DHT22;5557;51.670;7.788;2023-10-13T01:39:43;16.50;99.90
11009;DHT22;5557;51.670;7.788;2023-10-13T01:42:15;16.60;99.90
11009;DHT22;5557;51.670;7.788;2023-10-13T01:44:46;16.60;99.90
11009;DHT22;5557;51.670;7.788;2023-10-13T01:47:14;16.60;99.90
11009;DHT22;5557;51.670;7.788;2023-10-13T01:49:43;16.60;99.90
11009;DHT22;5557;51.670;7.788;2023-10-13T01:52:14;16.60;99.90
11009;DHT22;5557;51.670;7.788;2023-10-13T01:54:46;16.60;99.90
11009;DHT22;5557;51.670;7.788;2023-10-13T01:57:16;16.60;99.90
11009;DHT22;5557;51.670;7.788;2023-10-13T01:59:47;16.60;99.90
11009;DHT22;5557;51.670;7.788;2023-10-13T02:02:16;16.60;99.90
11009;DHT22;5557;51.670;7.788;2023-10-13T02:04:56;16.70;99.90
11009;DHT22;5557;51.670;7.788;2023-10-13T02:07:28;16.70;99.90
11009;DHT22;5557;51.670;7.788;2023-10-13T02:09:58;16.70;99.90
11009;DHT22;5557;51.670;7.788;2023-10-13T02:12:25;16.80;99.90
11009;DHT22;5557;51.670;7.788;2023-10-13T02:15:11;16.80;99.90
11009;DHT22;5557;51.670;7.788;2023-10-13T02:17:39;16.80;99.90
11009;DHT22;5557;51.670;7.788;2023-10-13T02:20:09;16.80;99.90
11009;DHT22;5557;51.670;7.788;2023-10-13T02:22:42;16.80;99.90
11009;DHT22;5557;51.670;7.788;2023-10-13T02:25:19;16.80;99.90
11009;DHT22;5557;51.670;7.788;2023-10-13T02:28:13;16.80;99.90
11009;DHT22;5557;51.670;7.788;2023-10-13T02:30:42;16.80;99.90
11009;DHT22;5557;51.670;7.788;2023-10-13T02:33:17;16.80;99.90
11009;DHT22;5557;51.670;7.788;2023-10-13T02:36:00;16.80;99.90
11009;DHT22;5557;51.670;7.788;2023-10-13T02:38:33;16.80;99.90
11009;DHT22;5557;51.670;7.788;2023-10-13T02:41:26;16.80;99.90
11009;DHT22;5557;51.670;7.788;2023-10-13T02:43:55;16.80;99.90
11009;DHT22;5557;51.670;7.788;2023-10-13T02:46:23;16.80;99.90
11009;DHT22;5557;51.670;7.788;2023-10-13T02:48:51;16.80;99.90
11009;DHT22;5557;51.670;7.788;2023-10-13T02:51:22;16.90;99.90
11009;DHT22;5557;51.670;7.788;2023-10-13T02:53:58;16.90;99.90
11009;DHT22;5557;51.670;7.788;2023-10-13T02:56:29;16.80;99.90
11009;DHT22;5557;51.670;7.788;2023-10-13T02:58:56;16.80;99.90
11009;DHT22;5557;51.670;7.788;2023-10-13T03:01:24;16.80;99.90
11009;DHT22;5557;51.670;7.788;2023-10-13T03:03:56;16.80;99.90
11009;DHT22;5557;51.670;7.788;2023-10-13T03:06:26;16.90;99.90
11009;DHT22;5557;51.670;7.788;2023-10-13T03:09:04;16.90;99.90
11009;DHT22;5557;51.670;7.788;2023-10-13T03:11:42;16.90;99.90
11009;DHT22;5557;51.670;7.788;2023-10-13T03:14:19;16.90;99.90
11009;DHT22;5557;51.670;7.788;2023-10-13T03:16:52;17.00;99.90
11009;DHT22;5557;51.670;7.788;2023-10-13T03:19:20;17.00;99.90
11009;DHT22;5557;51.670;7.788;2023-10-13T03:21:48;17.00;99.90
11009;DHT22;5557;51.670;7.788;2023-10-13T03:24:31;17.00;99.90
11009;DHT22;5557;51.670;7.788;2023-10-13T03:27:04;17.00;99.90
11009;DHT22;5557;51.670;7.788;2023-10-13T03:29:36;17.00;99.90
11009;DHT22;5557;51.670;7.788;2023-10-13T03:32:04;17.00;99.90
11009;DHT22;5557;51.670;7.788;2023-10-13T03:34:39;17.10;99.90
11009;DHT22;5557;51.670;7.788;2023-10-13T03:37:38;17.10;99.90
11009;DHT22;5557;51.670;7.788;2023-10-13T03:40:10;17.10;99.90
11009;DHT22;5557;51.670;7.788;2023-10-13T03:42:52;17.10;99.90
11009;DHT22;5557;51.670;7.788;2023-10-13T03:45:39;17.10;99.90
11009;DHT22;5557;51.670;7.788;2023-10-13T03:48:09;17.10;99.90
11009;DHT22;5557;51.670;7.788;2023-10-13T03:50:37;17.10;99.90
11009;DHT22;5557;51.670;7.788;2023-10-13T03:53:04;17.10;99.90
11009;DHT22;5557;51.670;7.788;2023-10-13T03:55:32;17.10;99.90
11009;DHT22;5557;51.670;7.788;2023-10-13T03:58:02;17.10;99.90
11009;DHT22;5557;51.670;7.788;2023-10-13T04:00:30;17.00;99.90
11009;DHT22;5557;51.670;7.788;2023-10-13T04:02:58;17.00;99.90
11009;DHT22;5557;51.670;7.788;2023-10-13T04:05:43;17.00;99.90
11009;DHT22;5557;51.670;7.788;2023-10-13T04:08:28;17.00;99.90
11009;DHT22;5557;51.670;7.788;2023-10-13T04:10:58;17.00;99.90
11009;DHT22;5557;51.670;7.788;2023-10-13T04:13:33;17.00;99.90
11009;DHT22;5557;51.670;7.788;2023-10-13T04:16:26;16.90;99.90
11009;DHT22;5557;51.670;7.788;2023-10-13T04:19:03;16.90;99.90
11009;DHT22;5557;51.670;7.788;2023-10-13T04:21:39;16.90;99.90
11009;DHT22;5557;51.670;7.788;2023-10-13T04:24:11;16.90;99.90
11009;DHT22;5557;51.670;7.788;2023-10-13T04:27:05;16.90;99.90
11009;DHT22;5557;51.670;7.788;2023-10-13T04:29:58;16.90;99.90
11009;DHT22;5557;51.670;7.788;2023-10-13T04:32:34;16.90;99.90
11009;DHT22;5557;51.670;7.788;2023-10-13T04:35:15;16.80;99.90
11009;DHT22;5557;51.670;7.788;2023-10-13T04:37:42;16.80;99.90
11009;DHT22;5557;51.670;7.788;2023-10-13T04:40:28;16.80;99.90
11009;DHT22;5557;51.670;7.788;2023-10-13T04:43:02;16.80;99.90
11009;DHT22;5557;51.670;7.788;2023-10-13T04:45:52;16.80;99.90
11009;DHT22;5557;51.670;7.788;2023-10-13T04:48:25;16.70;99.90
11009;DHT22;5557;51.670;7.788;2023-10-13T04:50:52;16.70;99.90
11009;DHT22;5557;51.670;7.788;2023-10-13T04:53:42;16.70;99.90
11009;DHT22;5557;51.670;7.788;2023-10-13T04:56:30;16.70;99.90
11009;DHT22;5557;51.670;7.788;2023-10-13T04:59:16;16.70;99.90
11009;DHT22;5557;51.670;7.788;2023-10-13T05:02:02;16.70;99.90
11009;DHT22;5557;51.670;7.788;2023-10-13T05:04:49;16.70;99.90
11009;DHT22;5557;51.670;7.788;2023-10-13T05:07:52;16.70;99.90
11009;DHT22;5557;51.670;7.788;2023-10-13T05:10:38;16.70;99.90
11009;DHT22;5557;51.670;7.788;2023-10-13T05:13:23;16.60;99.90
11009;DHT22;5557;51.670;7.788;2023-10-13T05:16:25;16.60;99.90
11009;DHT22;5557;51.670;7.788;2023-10-13T05:19:11;16.60;99.90
11009;DHT22;5557;51.670;7.788;2023-10-13T05:21:56;16.60;99.90
11009;DHT22;5557;51.670;7.788;2023-10-13T05:24:42;16.60;99.90
11009;DHT22;5557;51.670;7.788;2023-10-13T05:27:27;16.60;99.90
11009;DHT22;5557;51.670;7.788;2023-10-13T05:30:13;16.70;99.90
11009;DHT22;5557;51.670;7.788;2023-10-13T05:33:02;16.70;99.90
11009;DHT22;5557;51.670;7.788;2023-10-13T05:35:47;16.70;99.90
11009;DHT22;5557;51.670;7.788;2023-10-13T05:38:33;16.80;99.90
11009;DHT22;5557;51.670;7.788;2023-10-13T05:41:18;16.80;99.90
11009;DHT22;5557;51.670;7.788;2023-10-13T05:44:04;16.80;99.90
11009;DHT22;5557;51.670;7.788;2023-10-13T05:46:49;16.90;99.90
11009;DHT22;5557;51.670;7.788;2023-10-13T05:49:28;16.90;99.90
11009;DHT22;5557;51.670;7.788;2023-10-13T05:52:13;17.00;99.90
11009;DHT22;5557;51.670;7.788;2023-10-13T05:55:06;17.00;99.90
11009;DHT22;5557;51.670;7.788;2023-10-13T05:57:52;17.00;99.90
11009;DHT22;5557;51.670;7.788;2023-10-13T06:00:39;17.10;99.90
11009;DHT22;5557;51.670;7.788;2023-10-13T06:03:24;17.10;99.90
11009;DHT22;5557;51.670;7.788;2023-10-13T06:06:10;17.10;99.90
11009;DHT22;5557;51.670;7.788;2023-10-13T06:08:55;17.10;99.90
11009;DHT22;5557;51.670;7.788;2023-10-13T06:11:41;17.10;99.90
11009;DHT22;5557;51.670;7.788;2023-10-13T06:14:27;17.10;99.90
11009;DHT22;5557;51.670;7.788;2023-10-13T06:17:12;17.20;99.90
11009;DHT22;5557;51.670;7.788;2023-10-13T06:19:58;17.20;99.90
11009;DHT22;5557;51.670;7.788;2023-10-13T06:22:48;17.20;99.90
11009;DHT22;5557;51.670;7.788;2023-10-13T06:25:34;17.20;99.90
11009;DHT22;5557;51.670;7.788;2023-10-13T06:28:19;17.20;99.90
11009;DHT22;5557;51.670;7.788;2023-10-13T06:31:09;17.20;99.90
11009;DHT22;5557;51.670;7.788;2023-10-13T06:33:49;17.20;99.90
11009;DHT22;5557;51.670;7.788;2023-10-13T06:36:18;17.20;99.90
11009;DHT22;5557;51.670;7.788;2023-10-13T06:38:45;17.20;99.90
11009;DHT22;5557;51.670;7.788;2023-10-13T06:41:22;17.20;99.90
11009;DHT22;5557;51.670;7.788;2023-10-13T06:43:58;17.30;99.90
11009;DHT22;5557;51.670;7.788;2023-10-13T06:46:28;17.30;99.90
11009;DHT22;5557;51.670;7.788;2023-10-13T06:48:56;17.30;99.90
11009;DHT22;5557;51.670;7.788;2023-10-13T06:51:27;17.40;99.90
11009;DHT22;5557;51.670;7.788;2023-10-13T06:53:58;17.40;99.90
11009;DHT22;5557;51.670;7.788;2023-10-13T06:56:26;17.40;99.90
11009;DHT22;5557;51.670;7.788;2023-10-13T06:58:56;17.50;99.90
11009;DHT22;5557;51.670;7.788;2023-10-13T07:01:27;17.50;99.90
11009;DHT22;5557;51.670;7.788;2023-10-13T07:03:55;17.50;99.90
11009;DHT22;5557;51.670;7.788;2023-10-13T07:06:28;17.50;99.90
11009;DHT22;5557;51.670;7.788;2023-10-13T07:08:58;17.50;99.90
11009;DHT22;5557;51.670;7.788;2023-10-13T07:11:30;17.60;99.90
11009;DHT22;5557;51.670;7.788;2023-10-13T07:14:04;17.60;99.90
11009;DHT22;5557;51.670;7.788;2023-10-13T07:16:43;17.60;99.90
11009;DHT22;5557;51.670;7.788;2023-10-13T07:19:13;17.70;99.90
11009;DHT22;5557;51.670;7.788;2023-10-13T07:21:48;17.70;99.90
11009;DHT22;5557;51.670;7.788;2023-10-13T07:24:16;17.70;99.90
11009;DHT22;5557;51.670;7.788;2023-10-13T07:26:43;17.80;99.90
11009;DHT22;5557;51.670;7.788;2023-10-13T07:29:12;17.90;99.90
11009;DHT22;5557;51.670;7.788;2023-10-13T07:31:41;17.90;99.90
11009;DHT22;5557;51.670;7.788;2023-10-13T07:34:13;17.80;99.90
11009;DHT22;5557;51.670;7.788;2023-10-13T07:36:55;17.90;99.90
11009;DHT22;5557;51.670;7.788;2023-10-13T07:39:30;18.00;99.90
11009;DHT22;5557;51.670;7.788;2023-10-13T07:42:02;18.20;99.90
11009;DHT22;5557;51.670;7.788;2023-10-13T07:44:46;18.30;99.90
11009;DHT22;5557;51.670;7.788;2023-10-13T07:47:14;18.40;99.90
11009;DHT22;5557;51.670;7.788;2023-10-13T07:49:43;18.50;99.90
11009;DHT22;5557;51.670;7.788;2023-10-13T07:52:11;18.70;99.90
11009;DHT22;5557;51.670;7.788;2023-10-13T07:54:55;18.70;99.90
11009;DHT22;5557;51.670;7.788;2023-10-13T07:57:42;18.90;99.90
11009;DHT22;5557;51.670;7.788;2023-10-13T08:00:25;19.00;99.90
11009;DHT22;5557;51.670;7.788;2023-10-13T08:03:25;19.10;99.90
11009;DHT22;5557;51.670;7.788;2023-10-13T08:06:05;19.10;99.90
11009;DHT22;5557;51.670;7.788;2023-10-13T08:08:33;19.20;99.90
11009;DHT22;5557;51.670;7.788;2023-10-13T08:11:14;19.20;99.90
11009;DHT22;5557;51.670;7.788;2023-10-13T08:13:54;19.20;99.90
11009;DHT22;5557;51.670;7.788;2023-10-13T08:16:36;19.30;99.90
11009;DHT22;5557;51.670;7.788;2023-10-13T08:19:15;19.50;99.90
11009;DHT22;5557;51.670;7.788;2023-10-13T08:21:43;19.70;99.90
11009;DHT22;5557;51.670;7.788;2023-10-13T08:24:21;20.10;98.90
11009;DHT22;5557;51.670;7.788;2023-10-13T08:27:15;20.20;93.20
11009;DHT22;5557;51.670;7.788;2023-10-13T08:30:03;20.30;91.90
11009;DHT22;5557;51.670;7.788;2023-10-13T08:32:49;20.50;87.70
11009;DHT22;5557;51.670;7.788;2023-10-13T08:35:25;20.30;83.30
11009;DHT22;5557;51.670;7.788;2023-10-13T08:38:03;20.10;90.30
11009;DHT22;5557;51.670;7.788;2023-10-13T08:40:59;20.10;92.50
11009;DHT22;5557;51.670;7.788;2023-10-13T08:43:45;20.10;94.40
11009;DHT22;5557;51.670;7.788;2023-10-13T08:46:19;20.20;94.60
11009;DHT22;5557;51.670;7.788;2023-10-13T08:48:57;20.70;76.70
11009;DHT22;5557;51.670;7.788;2023-10-13T08:51:41;21.20;68.80
11009;DHT22;5557;51.670;7.788;2023-10-13T08:54:14;22.00;56.60
11009;DHT22;5557;51.670;7.788;2023-10-13T08:57:02;22.30;39.70
11009;DHT22;5557;51.670;7.788;2023-10-13T08:59:59;22.20;37.10
11009;DHT22;5557;51.670;7.788;2023-10-13T09:02:46;22.50;33.40
11009;DHT22;5557;51.670;7.788;2023-10-13T09:05:26;22.90;26.90
11009;DHT22;5557;51.670;7.788;2023-10-13T09:08:08;23.20;21.80
11009;DHT22;5557;51.670;7.788;2023-10-13T09:10:36;23.10;18.30
11009;DHT22;5557;51.670;7.788;2023-10-13T09:13:12;23.40;21.00
11009;DHT22;5557;51.670;7.788;2023-10-13T09:15:47;23.70;15.80
11009;DHT22;5557;51.670;7.788;2023-10-13T09:18:28;23.60;14.20
11009;DHT22;5557;51.670;7.788;2023-10-13T09:21:27;23.60;11.00
11009;DHT22;5557;51.670;7.788;2023-10-13T09:24:11;24.00;6.90
11009;DHT22;5557;51.670;7.788;2023-10-13T09:26:50;24.00;3.90
11009;DHT22;5557;51.670;7.788;2023-10-13T09:29:24;24.00;1.40
11009;DHT22;5557;51.670;7.788;2023-10-13T09:32:02;23.60;3.10
11009;DHT22;5557;51.670;7.788;2023-10-13T09:34:31;23.40;1.60
11009;DHT22;5557;51.670;7.788;2023-10-13T09:37:02;23.20;5.80
11009;DHT22;5557;51.670;7.788;2023-10-13T09:39:33;23.40;2.70
11009;DHT22;5557;51.670;7.788;2023-10-13T09:42:12;23.80;1.00
11009;DHT22;5557;51.670;7.788;2023-10-13T09:44:46;23.60;1.00
11009;DHT22;5557;51.670;7.788;2023-10-13T09:47:23;23.60;1.00
11009;DHT22;5557;51.670;7.788;2023-10-13T09:50:08;23.90;1.00
11009;DHT22;5557;51.670;7.788;2023-10-13T09:52:43;24.20;1.00
11009;DHT22;5557;51.670;7.788;2023-10-13T09:55:24;24.30;1.00
11009;DHT22;5557;51.670;7.788;2023-10-13T09:58:03;24.20;1.00
11009;DHT22;5557;51.670;7.788;2023-10-13T10:00:47;24.20;1.00
11009;DHT22;5557;51.670;7.788;2023-10-13T10:03:16;24.30;1.00
11009;DHT22;5557;51.670;7.788;2023-10-13T10:06:01;24.40;1.00
11009;DHT22;5557;51.670;7.788;2023-10-13T10:08:45;24.80;1.00
11009;DHT22;5557;51.670;7.788;2023-10-13T10:17:25;24.60;1.00
11009;DHT22;5557;51.670;7.788;2023-10-13T10:19:58;24.50;1.00
11009;DHT22;5557;51.670;7.788;2023-10-13T10:22:32;24.50;1.00
11009;DHT22;5557;51.670;7.788;2023-10-13T10:25:04;24.40;1.00
11009;DHT22;5557;51.670;7.788;2023-10-13T10:27:58;24.40;1.00
11009;DHT22;5557;51.670;7.788;2023-10-13T10:30:31;24.40;1.00
11009;DHT22;5557;51.670;7.788;2023-10-13T10:33:04;24.70;1.00
11009;DHT22;5557;51.670;7.788;2023-10-13T10:35:44;24.80;1.00
11009;DHT22;5557;51.670;7.788;2023-10-13T10:38:17;24.90;1.00
11009;DHT22;5557;51.670;7.788;2023-10-13T10:41:10;25.00;1.00
11009;DHT22;5557;51.670;7.788;2023-10-13T10:43:40;25.10;1.00
11009;DHT22;5557;51.670;7.788;2023-10-13T10:46:18;25.10;1.00
11009;DHT22;5557;51.670;7.788;2023-10-13T10:48:52;25.20;1.00
11009;DHT22;5557;51.670;7.788;2023-10-13T10:51:23;25.00;1.00
11009;DHT22;5557;51.670;7.788;2023-10-13T10:53:54;25.00;1.00
11009;DHT22;5557;51.670;7.788;2023-10-13T10:56:25;24.60;1.00
11009;DHT22;5557;51.670;7.788;2023-10-13T10:59:07;24.30;1.00
11009;DHT22;5557;51.670;7.788;2023-10-13T11:01:59;24.20;1.00
11009;DHT22;5557;51.670;7.788;2023-10-13T11:04:54;24.20;1.00
11009;DHT22;5557;51.670;7.788;2023-10-13T11:07:29;24.10;1.00
11009;DHT22;5557;51.670;7.788;2023-10-13T11:10:10;24.10;1.00
11009;DHT22;5557;51.670;7.788;2023-10-13T11:13:03;24.10;1.00
11009;DHT22;5557;51.670;7.788;2023-10-13T11:15:45;24.10;1.00
11009;DHT22;5557;51.670;7.788;2023-10-13T11:18:15;24.10;1.00
11009;DHT22;5557;51.670;7.788;2023-10-13T11:20:56;24.20;1.00
11009;DHT22;5557;51.670;7.788;2023-10-13T11:23:23;24.20;1.00
11009;DHT22;5557;51.670;7.788;2023-10-13T11:25:59;24.30;1.00
11009;DHT22;5557;51.670;7.788;2023-10-13T11:28:30;24.30;1.00
11009;DHT22;5557;51.670;7.788;2023-10-13T11:31:09;24.40;1.00
11009;DHT22;5557;51.670;7.788;2023-10-13T11:33:59;24.40;1.00
11009;DHT22;5557;51.670;7.788;2023-10-13T11:36:29;24.50;1.00
11009;DHT22;5557;51.670;7.788;2023-10-13T11:38:59;24.40;1.00
11009;DHT22;5557;51.670;7.788;2023-10-13T11:41:27;24.30;1.00
11009;DHT22;5557;51.670;7.788;2023-10-13T11:44:01;24.30;1.00
11009;DHT22;5557;51.670;7.788;2023-10-13T11:46:39;24.30;1.00
11009;DHT22;5557;51.670;7.788;2023-10-13T11:49:22;24.30;1.00
11009;DHT22;5557;51.670;7.788;2023-10-13T11:52:00;24.20;1.00
11009;DHT22;5557;51.670;7.788;2023-10-13T11:54:43;24.20;1.00
11009;DHT22;5557;51.670;7.788;2023-10-13T11:57:11;24.20;1.00
11009;DHT22;5557;51.670;7.788;2023-10-13T11:59:38;24.20;1.00
11009;DHT22;5557;51.670;7.788;2023-10-13T12:02:11;24.20;1.00
11009;DHT22;5557;51.670;7.788;2023-10-13T12:04:39;24.20;1.00
11009;DHT22;5557;51.670;7.788;2023-10-13T12:07:23;24.30;1.00
11009;DHT22;5557;51.670;7.788;2023-10-13T12:09:54;24.20;1.00
11009;DHT22;5557;51.670;7.788;2023-10-13T12:12:30;24.20;1.00
11009;DHT22;5557;51.670;7.788;2023-10-13T12:15:07;24.20;1.00
11009;DHT22;5557;51.670;7.788;2023-10-13T12:17:51;24.20;1.00
11009;DHT22;5557;51.670;7.788;2023-10-13T12:20:19;24.20;1.00
11009;DHT22;5557;51.670;7.788;2023-10-13T12:23:00;24.20;1.00
11009;DHT22;5557;51.670;7.788;2023-10-13T12:25:37;24.20;1.00
11009;DHT22;5557;51.670;7.788;2023-10-13T12:28:24;24.30;1.00
11009;DHT22;5557;51.670;7.788;2023-10-13T12:31:02;24.30;1.00
11009;DHT22;5557;51.670;7.788;2023-10-13T12:33:31;24.40;1.00
11009;DHT22;5557;51.670;7.788;2023-10-13T12:36:07;24.30;1.00
11009;DHT22;5557;51.670;7.788;2023-10-13T12:38:53;24.30;1.00
11009;DHT22;5557;51.670;7.788;2023-10-13T12:41:56;24.30;1.00
11009;DHT22;5557;51.670;7.788;2023-10-13T12:44:41;24.30;1.00
11009;DHT22;5557;51.670;7.788;2023-10-13T12:47:43;24.30;1.00
11009;DHT22;5557;51.670;7.788;2023-10-13T12:50:30;24.30;1.00
11009;DHT22;5557;51.670;7.788;2023-10-13T12:53:11;24.30;1.00
11009;DHT22;5557;51.670;7.788;2023-10-13T12:55:41;24.30;1.00
11009;DHT22;5557;51.670;7.788;2023-10-13T12:58:08;24.30;1.00
11009;DHT22;5557;51.670;7.788;2023-10-13T13:00:35;24.40;1.00
11009;DHT22;5557;51.670;7.788;2023-10-13T13:03:02;24.30;1.00
11009;DHT22;5557;51.670;7.788;2023-10-13T13:05:38;24.30;1.00
11009;DHT22;5557;51.670;7.788;2023-10-13T13:08:11;24.20;1.00
11009;DHT22;5557;51.670;7.788;2023-10-13T13:10:46;24.20;1.00
11009;DHT22;5557;51.670;7.788;2023-10-13T13:13:15;24.20;1.00
11009;DHT22;5557;51.670;7.788;2023-10-13T13:15:44;24.10;1.00
11009;DHT22;5557;51.670;7.788;2023-10-13T13:18:14;24.00;1.00
11009;DHT22;5557;51.670;7.788;2023-10-13T13:20:43;24.00;1.00
11009;DHT22;5557;51.670;7.788;2023-10-13T13:23:22;24.00;1.00
11009;DHT22;5557;51.670;7.788;2023-10-13T13:25:54;23.90;1.00
11009;DHT22;5557;51.670;7.788;2023-10-13T13:28:24;23.80;1.00
11009;DHT22;5557;51.670;7.788;2023-10-13T13:30:59;23.80;1.00
11009;DHT22;5557;51.670;7.788;2023-10-13T13:33:26;23.80;1.00
11009;DHT22;5557;51.670;7.788;2023-10-13T13:36:00;23.80;1.00
11009;DHT22;5557;51.670;7.788;2023-10-13T13:38:27;23.80;1.00
11009;DHT22;5557;51.670;7.788;2023-10-13T13:40:57;23.70;1.00
11009;DHT22;5557;51.670;7.788;2023-10-13T13:43:26;23.60;1.00
11009;DHT22;5557;51.670;7.788;2023-10-13T13:46:09;23.60;1.00
11009;DHT22;5557;51.670;7.788;2023-10-13T13:48:37;23.50;1.00
11009;DHT22;5557;51.670;7.788;2023-10-13T13:51:06;23.50;1.00
11009;DHT22;5557;51.670;7.788;2023-10-13T13:53:42;23.50;1.00
11009;DHT22;5557;51.670;7.788;2023-10-13T13:56:13;23.60;1.00
11009;DHT22;5557;51.670;7.788;2023-10-13T13:58:47;23.60;1.00
11009;DHT22;5557;51.670;7.788;2023-10-13T14:01:15;23.70;1.00
11009;DHT22;5557;51.670;7.788;2023-10-13T14:03:46;23.80;1.00
11009;DHT22;5557;51.670;7.788;2023-10-13T14:06:14;23.80;1.00
11009;DHT22;5557;51.670;7.788;2023-10-13T14:08:45;23.70;1.00
11009;DHT22;5557;51.670;7.788;2023-10-13T14:11:15;23.70;1.00
11009;DHT22;5557;51.670;7.788;2023-10-13T14:14:01;23.80;1.00
11009;DHT22;5557;51.670;7.788;2023-10-13T14:16:31;23.80;1.00
11009;DHT22;5557;51.670;7.788;2023-10-13T14:19:00;23.80;1.00
11009;DHT22;5557;51.670;7.788;2023-10-13T14:21:34;23.80;1.00
11009;DHT22;5557;51.670;7.788;2023-10-13T14:24:02;23.80;1.00
11009;DHT22;5557;51.670;7.788;2023-10-13T14:26:29;23.80;1.00
11009;DHT22;5557;51.670;7.788;2023-10-13T14:28:58;23.70;1.00
11009;DHT22;5557;51.670;7.788;2023-10-13T14:31:36;23.60;1.00
11009;DHT22;5557;51.670;7.788;2023-10-13T14:34:06;23.60;1.00
11009;DHT22;5557;51.670;7.788;2023-10-13T14:36:34;23.60;1.00
11009;DHT22;5557;51.670;7.788;2023-10-13T14:39:05;23.60;1.00
11009;DHT22;5557;51.670;7.788;2023-10-13T14:41:38;23.60;1.00
11009;DHT22;5557;51.670;7.788;2023-10-13T14:44:06;23.60;1.00
11009;DHT22;5557;51.670;7.788;2023-10-13T14:46:34;23.60;1.00
11009;DHT22;5557;51.670;7.788;2023-10-13T14:49:08;23.50;1.00
11009;DHT22;5557;51.670;7.788;2023-10-13T14:51:36;23.50;1.00
11009;DHT22;5557;51.670;7.788;2023-10-13T14:54:06;23.50;1.00
11009;DHT22;5557;51.670;7.788;2023-10-13T14:56:34;23.50;1.00
11009;DHT22;5557;51.670;7.788;2023-10-13T14:59:01;23.40;1.00
11009;DHT22;5557;51.670;7.788;2023-10-13T15:01:32;23.30;1.00
11009;DHT22;5557;51.670;7.788;2023-10-13T15:03:59;23.30;1.00
11009;DHT22;5557;51.670;7.788;2023-10-13T15:06:27;23.30;1.00
11009;DHT22;5557;51.670;7.788;2023-10-13T15:08:58;23.30;1.00
11009;DHT22;5557;51.670;7.788;2023-10-13T15:11:27;23.30;1.00
11009;DHT22;5557;51.670;7.788;2023-10-13T15:14:15;23.20;1.00
11009;DHT22;5557;51.670;7.788;2023-10-13T15:16:42;23.20;1.00
11009;DHT22;5557;51.670;7.788;2023-10-13T15:19:10;23.20;1.00
11009;DHT22;5557;51.670;7.788;2023-10-13T15:21:39;23.10;1.00
11009;DHT22;5557;51.670;7.788;2023-10-13T15:24:08;23.10;1.00
11009;DHT22;5557;51.670;7.788;2023-10-13T15:26:44;23.00;1.00
11009;DHT22;5557;51.670;7.788;2023-10-13T15:29:19;23.00;1.00
11009;DHT22;5557;51.670;7.788;2023-10-13T15:31:52;22.90;1.00
11009;DHT22;5557;51.670;7.788;2023-10-13T15:34:30;22.90;1.00
11009;DHT22;5557;51.670;7.788;2023-10-13T15:37:10;22.90;1.00
11009;DHT22;5557;51.670;7.788;2023-10-13T15:39:39;22.80;1.00
11009;DHT22;5557;51.670;7.788;2023-10-13T15:42:06;22.80;1.00
11009;DHT22;5557;51.670;7.788;2023-10-13T15:44:36;22.80;1.00
11009;DHT22;5557;51.670;7.788;2023-10-13T15:47:03;22.80;1.00
11009;DHT22;5557;51.670;7.788;2023-10-13T15:49:52;22.80;1.00
11009;DHT22;5557;51.670;7.788;2023-10-13T15:52:20;22.80;1.00
11009;DHT22;5557;51.670;7.788;2023-10-13T15:54:47;22.80;1.00
11009;DHT22;5557;51.670;7.788;2023-10-13T15:57:14;22.80;1.00
11009;DHT22;5557;51.670;7.788;2023-10-13T15:59:43;22.70;1.00
11009;DHT22;5557;51.670;7.788;2023-10-13T16:02:13;22.70;1.00
11009;DHT22;5557;51.670;7.788;2023-10-13T16:04:44;22.60;1.00
11009;DHT22;5557;51.670;7.788;2023-10-13T16:07:12;22.60;1.00
11009;DHT22;5557;51.670;7.788;2023-10-13T16:09:39;22.50;1.00
11009;DHT22;5557;51.670;7.788;2023-10-13T16:12:08;22.60;1.00
11009;DHT22;5557;51.670;7.788;2023-10-13T16:14:38;22.60;1.00
11009;DHT22;5557;51.670;7.788;2023-10-13T16:17:05;22.50;1.00
11009;DHT22;5557;51.670;7.788;2023-10-13T16:19:36;22.50;1.00
11009;DHT22;5557;51.670;7.788;2023-10-13T16:22:03;22.50;1.00
11009;DHT22;5557;51.670;7.788;2023-10-13T16:24:32;22.40;1.00
11009;DHT22;5557;51.670;7.788;2023-10-13T16:27:01;22.40;1.00
11009;DHT22;5557;51.670;7.788;2023-10-13T16:29:28;22.40;1.00
11009;DHT22;5557;51.670;7.788;2023-10-13T16:32:08;22.30;1.00
11009;DHT22;5557;51.670;7.788;2023-10-13T16:34:47;22.30;1.00
11009;DHT22;5557;51.670;7.788;2023-10-13T16:37:18;22.30;1.00
11009;DHT22;5557;51.670;7.788;2023-10-13T16:39:45;22.30;1.00
11009;DHT22;5557;51.670;7.788;2023-10-13T16:42:12;22.30;1.00
11009;DHT22;5557;51.670;7.788;2023-10-13T16:44:42;22.20;1.00
11009;DHT22;5557;51.670;7.788;2023-10-13T16:47:12;22.20;1.00
11009;DHT22;5557;51.670;7.788;2023-10-13T16:49:40;22.20;1.00
11009;DHT22;5557;51.670;7.788;2023-10-13T16:52:10;22.20;1.00
11009;DHT22;5557;51.670;7.788;2023-10-13T16:54:40;22.20;1.00
11009;DHT22;5557;51.670;7.788;2023-10-13T16:57:07;22.10;1.00